Time;durP1;ratioP1;P1;durP2;ratioP2;P2;SDS_P1;SDS_P2;PMS_P1;PMS_P2;Temp;Humidity;BMP_temperature;BMP_pressure;BME280_temperature;BME280_humidity;BME280_pressure;Samples;Min_cycle;Max_cycle;Signal;HPM_P1;HPM_P2
2022/01/28 00:00:31;;;;;;;23.03;12.10;;;;;;;;;;5116922;28;20461;-71
2022/01/28 00:03:06;;;;;;;24.50;13.50;;;;;;;;;;5120486;28;20450;-70
2022/01/28 00:05:34;;;;;;;22.43;12.03;;;;;;;;;;5099515;28;20486;-70
2022/01/28 00:08:02;;;;;;;20.40;11.40;;;;;;;;;;5099916;28;20942;-70
2022/01/28 00:10:32;;;;;;;22.60;10.70;;;;;;;;;;5118461;28;20449;-71
2022/01/28 00:15:56;;;;;;;22.80;10.90;;;;;;;;;;5119900;28;20922;-71
2022/01/28 00:38:14;;;;;;;20.20;10.60;;;;;;;;;;5105373;28;20446;-70
2022/01/28 00:40:42;;;;;;;24.13;11.40;;;;;;;;;;5099082;28;20969;-70
2022/01/28 00:43:11;;;;;;;21.53;11.37;;;;;;;;;;5107831;28;20445;-70
2022/01/28 00:45:39;;;;;;;18.97;11.33;;;;;;;;;;5119108;28;20447;-71
2022/01/28 00:48:07;;;;;;;19.77;12.23;;;;;;;;;;5110582;28;20816;-70
2022/01/28 00:50:35;;;;;;;21.53;11.73;;;;;;;;;;5098693;28;20447;-71
2022/01/28 00:53:03;;;;;;;24.70;11.30;;;;;;;;;;5098924;28;20476;-70
2022/01/28 00:55:31;;;;;;;19.50;12.10;;;;;;;;;;5104118;28;20935;-71
2022/01/28 00:57:59;;;;;;;23.63;12.77;;;;;;;;;;5110718;27;20447;-71
2022/01/28 01:00:28;;;;;;;19.97;10.87;;;;;;;;;;5098631;28;20501;-71
2022/01/28 01:02:56;;;;;;;19.57;10.30;;;;;;;;;;5098252;28;20459;-71
2022/01/28 01:05:26;;;;;;;20.00;11.53;;;;;;;;;;5098483;28;20440;-71
2022/01/28 01:07:54;;;;;;;24.23;12.00;;;;;;;;;;5104493;28;20466;-70
2022/01/28 01:10:23;;;;;;;22.40;11.77;;;;;;;;;;5119218;28;20443;-70
2022/01/28 01:12:51;;;;;;;19.13;12.00;;;;;;;;;;5118616;28;20475;-70
2022/01/28 01:15:23;;;;;;;18.40;10.23;;;;;;;;;;5119044;28;20445;-71
2022/01/28 01:17:59;;;;;;;17.70;10.20;;;;;;;;;;5112489;28;20463;-70
2022/01/28 01:20:53;;;;;;;21.30;10.90;;;;;;;;;;5118044;28;20477;-70
2022/01/28 01:23:25;;;;;;;20.90;11.27;;;;;;;;;;5108253;28;20451;-72
2022/01/28 01:25:57;;;;;;;23.43;11.37;;;;;;;;;;5099157;28;20463;-70
2022/01/28 01:28:30;;;;;;;23.90;11.07;;;;;;;;;;5107299;28;20442;-71
2022/01/28 01:30:59;;;;;;;23.83;11.30;;;;;;;;;;5118456;28;20450;-71
2022/01/28 01:33:31;;;;;;;21.73;11.23;;;;;;;;;;5118285;28;20486;-70
2022/01/28 01:35:59;;;;;;;21.27;10.87;;;;;;;;;;5117898;28;20489;-70
2022/01/28 01:38:31;;;;;;;18.50;9.77;;;;;;;;;;5111525;28;20457;-71
2022/01/28 01:41:03;;;;;;;16.77;11.73;;;;;;;;;;5099089;28;20813;-71
2022/01/28 01:43:44;;;;;;;21.53;10.57;;;;;;;;;;5109304;28;21098;-71
2022/01/28 01:46:22;;;;;;;18.17;10.37;;;;;;;;;;5118390;28;20505;-70
2022/01/28 01:54:22;;;;;;;19.80;10.23;;;;;;;;;;5116847;28;21114;-71
2022/01/28 01:56:50;;;;;;;18.87;10.80;;;;;;;;;;5117163;28;20470;-70
2022/01/28 01:59:18;;;;;;;24.30;11.07;;;;;;;;;;5098985;28;20457;-71
2022/01/28 02:01:46;;;;;;;22.63;11.87;;;;;;;;;;5098307;28;20458;-70
2022/01/28 02:04:15;;;;;;;22.43;11.87;;;;;;;;;;5097356;28;20443;-70
2022/01/28 02:06:43;;;;;;;25.23;11.33;;;;;;;;;;5097717;28;20474;-70
2022/01/28 02:09:11;;;;;;;26.87;13.13;;;;;;;;;;5097756;28;20458;-71
2022/01/28 02:11:40;;;;;;;25.73;13.03;;;;;;;;;;5097654;28;20447;-70
2022/01/28 02:14:09;;;;;;;26.63;13.07;;;;;;;;;;5097361;28;20458;-70
2022/01/28 02:16:37;;;;;;;24.30;13.17;;;;;;;;;;5097812;28;20470;-70
2022/01/28 02:19:05;;;;;;;27.40;12.67;;;;;;;;;;5105622;28;20462;-71
2022/01/28 02:21:39;;;;;;;25.07;12.57;;;;;;;;;;5118280;28;20446;-70
2022/01/28 02:24:08;;;;;;;31.83;15.30;;;;;;;;;;5121796;28;20453;-71
2022/01/28 02:26:37;;;;;;;28.27;14.93;;;;;;;;;;5122194;28;20470;-71
2022/01/28 02:29:10;;;;;;;29.10;13.57;;;;;;;;;;5105039;28;20515;-71
2022/01/28 02:31:38;;;;;;;29.40;14.27;;;;;;;;;;5101685;28;20891;-70
2022/01/28 02:34:10;;;;;;;29.63;15.40;;;;;;;;;;5101146;28;20471;-70
2022/01/28 02:36:39;;;;;;;29.17;13.70;;;;;;;;;;5101306;28;20475;-71
2022/01/28 02:39:08;;;;;;;26.33;13.77;;;;;;;;;;5107928;28;20451;-71
2022/01/28 02:41:39;;;;;;;26.60;12.70;;;;;;;;;;5101614;28;20439;-70
2022/01/28 02:44:16;;;;;;;25.53;13.23;;;;;;;;;;5117685;28;20450;-71
2022/01/28 02:46:57;;;;;;;29.13;14.70;;;;;;;;;;5121836;28;20458;-71
2022/01/28 02:49:28;;;;;;;25.37;14.53;;;;;;;;;;5101743;28;20447;-70
2022/01/28 02:51:58;;;;;;;26.30;14.10;;;;;;;;;;5101308;28;20843;-71
2022/01/28 02:54:26;;;;;;;23.50;13.57;;;;;;;;;;5120535;28;20461;-71
2022/01/28 02:56:59;;;;;;;25.07;13.03;;;;;;;;;;5120624;28;20458;-70
2022/01/28 02:59:27;;;;;;;25.97;13.47;;;;;;;;;;5118744;28;20450;-71
2022/01/28 03:01:55;;;;;;;26.07;13.63;;;;;;;;;;5103862;27;20807;-70
2022/01/28 03:04:50;;;;;;;30.40;15.13;;;;;;;;;;5100894;28;20526;-70
2022/01/28 03:07:22;;;;;;;27.00;14.30;;;;;;;;;;5100972;28;20547;-71
2022/01/28 03:10:13;;;;;;;30.23;15.47;;;;;;;;;;5100739;28;20444;-70
2022/01/28 03:13:00;;;;;;;27.60;14.37;;;;;;;;;;5100498;28;20846;-70
2022/01/28 03:15:26;;;;;;;23.60;13.57;;;;;;;;;;5101148;28;20482;-71
2022/01/28 03:18:07;;;;;;;27.70;13.63;;;;;;;;;;5100576;28;20459;-70
2022/01/28 03:20:40;;;;;;;30.03;13.17;;;;;;;;;;5107317;28;20446;-71
2022/01/28 03:23:10;;;;;;;27.07;13.30;;;;;;;;;;5121138;28;20447;-70
2022/01/28 03:25:43;;;;;;;31.87;13.60;;;;;;;;;;5113354;28;20923;-70
2022/01/28 03:28:15;;;;;;;28.93;13.27;;;;;;;;;;5100827;28;20454;-70
2022/01/28 03:30:43;;;;;;;21.57;12.63;;;;;;;;;;5100552;28;20446;-70
2022/01/28 03:33:11;;;;;;;28.80;13.20;;;;;;;;;;5099675;28;20489;-70
2022/01/28 03:35:39;;;;;;;24.90;13.47;;;;;;;;;;5099515;28;20475;-70
2022/01/28 03:38:11;;;;;;;21.63;12.77;;;;;;;;;;5100788;28;20452;-70
2022/01/28 03:40:42;;;;;;;25.83;11.87;;;;;;;;;;5100298;28;20451;-71
2022/01/28 03:43:10;;;;;;;26.40;13.00;;;;;;;;;;5100053;28;20439;-70
2022/01/28 03:45:38;;;;;;;26.43;12.57;;;;;;;;;;5100333;28;20534;-71
2022/01/28 03:48:06;;;;;;;23.23;12.97;;;;;;;;;;5100191;28;20454;-70
2022/01/28 03:50:34;;;;;;;23.90;12.47;;;;;;;;;;5099916;28;20939;-71
2022/01/28 03:53:02;;;;;;;25.97;12.97;;;;;;;;;;5099888;28;20503;-71
2022/01/28 03:55:31;;;;;;;28.70;13.97;;;;;;;;;;5105831;28;20457;-71
2022/01/28 03:58:00;;;;;;;31.60;13.40;;;;;;;;;;5106749;28;20454;-70
2022/01/28 04:00:30;;;;;;;23.50;12.53;;;;;;;;;;5100247;28;20448;-70
2022/01/28 04:03:06;;;;;;;32.50;13.07;;;;;;;;;;5100139;28;20476;-70
2022/01/28 04:13:50;;;;;;;26.13;12.27;;;;;;;;;;5099487;28;20479;-71
2022/01/28 04:16:32;;;;;;;27.53;13.67;;;;;;;;;;5099389;28;20468;-70
2022/01/28 04:19:01;;;;;;;26.67;13.37;;;;;;;;;;5099197;28;20452;-71
2022/01/28 04:21:54;;;;;;;25.60;12.33;;;;;;;;;;5099237;28;20534;-70
2022/01/28 04:24:21;;;;;;;20.07;11.47;;;;;;;;;;5099549;28;20435;-70
2022/01/28 04:26:49;;;;;;;27.30;13.90;;;;;;;;;;5099480;28;20467;-70
2022/01/28 04:29:19;;;;;;;30.40;13.70;;;;;;;;;;5099365;28;20439;-71
2022/01/28 04:31:48;;;;;;;24.33;14.10;;;;;;;;;;5099381;28;20451;-70
2022/01/28 04:34:16;;;;;;;24.77;11.83;;;;;;;;;;5098630;28;20483;-70
2022/01/28 04:36:53;;;;;;;27.93;12.60;;;;;;;;;;5099134;28;20575;-71
2022/01/28 04:39:27;;;;;;;32.97;13.87;;;;;;;;;;5099913;28;20447;-71
2022/01/28 04:42:03;;;;;;;25.17;12.13;;;;;;;;;;5117351;28;20441;-70
2022/01/28 04:44:41;;;;;;;21.80;12.70;;;;;;;;;;5119358;28;20526;-70
2022/01/28 04:47:15;;;;;;;28.43;12.43;;;;;;;;;;5098934;28;20970;-70
2022/01/28 04:49:54;;;;;;;28.13;12.83;;;;;;;;;;5098483;28;20787;-70
2022/01/28 04:52:47;;;;;;;26.40;12.30;;;;;;;;;;5115632;28;20442;-70
2022/01/28 04:55:28;;;;;;;26.10;12.27;;;;;;;;;;5117784;28;20482;-70
2022/01/28 04:58:10;;;;;;;26.17;13.63;;;;;;;;;;5098721;28;21001;-70
2022/01/28 05:00:50;;;;;;;27.77;13.40;;;;;;;;;;5098494;28;20450;-70
2022/01/28 05:03:36;;;;;;;30.60;13.57;;;;;;;;;;5098577;28;20870;-70
2022/01/28 05:12:32;;;;;;;19.47;12.10;;;;;;;;;;5072432;28;20466;-71
2022/01/28 05:23:30;;;;;;;24.63;11.20;;;;;;;;;;5098642;28;20439;-70
2022/01/28 05:26:21;;;;;;;23.27;12.80;;;;;;;;;;5099019;28;20470;-70
2022/01/28 05:28:50;;;;;;;20.57;11.77;;;;;;;;;;5109091;28;20457;-70
2022/01/28 05:31:18;;;;;;;22.73;12.40;;;;;;;;;;5118662;28;20443;-71
2022/01/28 05:33:47;;;;;;;22.73;11.73;;;;;;;;;;5107954;28;21044;-70
2022/01/28 05:36:15;;;;;;;22.87;12.77;;;;;;;;;;5097687;28;20472;-70
2022/01/28 05:38:44;;;;;;;24.57;12.30;;;;;;;;;;5102885;28;20447;-71
2022/01/28 05:41:12;;;;;;;23.63;12.67;;;;;;;;;;5105155;28;20447;-71
2022/01/28 05:43:40;;;;;;;27.13;12.43;;;;;;;;;;5116189;28;20435;-70
2022/01/28 05:46:08;;;;;;;23.60;13.50;;;;;;;;;;5117880;28;20484;-70
2022/01/28 05:48:37;;;;;;;21.30;12.43;;;;;;;;;;5116585;28;20439;-71
2022/01/28 05:51:06;;;;;;;21.97;11.33;;;;;;;;;;5116886;28;20949;-71
2022/01/28 05:53:34;;;;;;;23.73;11.60;;;;;;;;;;5118204;28;20488;-70
2022/01/28 05:56:02;;;;;;;22.90;12.70;;;;;;;;;;5117712;28;20470;-70
2022/01/28 05:58:30;;;;;;;21.83;11.50;;;;;;;;;;5116686;28;20443;-70
2022/01/28 06:00:58;;;;;;;15.77;10.27;;;;;;;;;;5117061;28;20443;-70
2022/01/28 06:03:26;;;;;;;19.90;11.00;;;;;;;;;;5117717;28;20488;-71
2022/01/28 06:05:57;;;;;;;21.60;11.10;;;;;;;;;;5099458;28;20862;-70
2022/01/28 06:08:27;;;;;;;18.40;11.57;;;;;;;;;;5113603;28;20450;-70
2022/01/28 06:10:54;;;;;;;24.90;11.50;;;;;;;;;;5117883;28;20983;-70
2022/01/28 06:13:22;;;;;;;19.83;10.27;;;;;;;;;;5103730;28;20447;-70
2022/01/28 06:15:55;;;;;;;18.00;10.53;;;;;;;;;;5097531;28;20475;-71
2022/01/28 06:18:23;;;;;;;19.23;9.87;;;;;;;;;;5097689;28;20483;-70
2022/01/28 06:20:51;;;;;;;20.57;12.10;;;;;;;;;;5099066;28;20830;-70
2022/01/28 06:23:19;;;;;;;22.80;10.93;;;;;;;;;;5104700;28;20466;-70
2022/01/28 06:25:50;;;;;;;18.97;10.03;;;;;;;;;;5097360;28;20444;-71
2022/01/28 06:28:18;;;;;;;17.23;9.87;;;;;;;;;;5110281;28;20538;-70
2022/01/28 06:30:46;;;;;;;19.07;10.73;;;;;;;;;;5117741;28;20459;-70
2022/01/28 06:33:15;;;;;;;19.67;10.87;;;;;;;;;;5111923;28;20648;-70
2022/01/28 06:35:44;;;;;;;21.00;10.83;;;;;;;;;;5117113;28;20491;-70
2022/01/28 06:38:12;;;;;;;19.47;10.67;;;;;;;;;;5115105;28;20446;-70
2022/01/28 06:40:40;;;;;;;19.80;11.00;;;;;;;;;;5097313;28;20439;-70
2022/01/28 06:43:10;;;;;;;21.67;11.10;;;;;;;;;;5097504;28;20465;-70
2022/01/28 06:45:41;;;;;;;21.20;10.20;;;;;;;;;;5097019;28;20523;-70
2022/01/28 06:48:10;;;;;;;20.37;9.63;;;;;;;;;;5104208;28;20457;-70
2022/01/28 06:50:38;;;;;;;21.80;10.10;;;;;;;;;;5117029;28;20537;-70
2022/01/28 06:53:07;;;;;;;19.13;10.37;;;;;;;;;;5110196;28;20455;-70
2022/01/28 06:55:35;;;;;;;22.93;11.13;;;;;;;;;;5102510;28;20486;-70
2022/01/28 06:58:03;;;;;;;19.97;10.30;;;;;;;;;;5103902;28;20815;-70
2022/01/28 07:00:37;;;;;;;19.77;9.23;;;;;;;;;;5117707;28;20940;-70
2022/01/28 07:03:05;;;;;;;15.23;10.13;;;;;;;;;;5116875;28;20457;-70
2022/01/28 07:05:36;;;;;;;15.50;9.97;;;;;;;;;;5117062;28;20449;-70
2022/01/28 07:08:08;;;;;;;15.37;10.07;;;;;;;;;;5110609;28;21020;-70
2022/01/28 07:10:36;;;;;;;20.13;10.60;;;;;;;;;;5100779;28;20451;-71
2022/01/28 07:13:04;;;;;;;19.63;11.20;;;;;;;;;;5100583;28;20530;-70
2022/01/28 07:15:33;;;;;;;21.03;10.53;;;;;;;;;;5100659;28;20475;-70
2022/01/28 07:18:03;;;;;;;19.33;9.73;;;;;;;;;;5100352;28;21002;-70
2022/01/28 07:20:31;;;;;;;19.73;10.13;;;;;;;;;;5100098;28;20448;-70
2022/01/28 07:22:59;;;;;;;19.40;11.43;;;;;;;;;;5100403;28;20818;-70
2022/01/28 07:25:28;;;;;;;21.60;10.90;;;;;;;;;;5108026;28;20434;-70
2022/01/28 07:27:59;;;;;;;20.20;11.00;;;;;;;;;;5121029;28;21051;-70
2022/01/28 07:30:27;;;;;;;20.87;10.10;;;;;;;;;;5113225;28;20447;-70
2022/01/28 07:32:56;;;;;;;19.43;11.10;;;;;;;;;;5100000;28;20469;-70
2022/01/28 07:35:24;;;;;;;19.33;10.40;;;;;;;;;;5102863;28;20485;-70
2022/01/28 07:37:52;;;;;;;18.47;9.77;;;;;;;;;;5100351;28;20546;-70
2022/01/28 07:40:20;;;;;;;20.37;10.10;;;;;;;;;;5103121;28;20453;-70
2022/01/28 07:42:48;;;;;;;18.40;9.63;;;;;;;;;;5120647;28;20442;-70
2022/01/28 07:45:16;;;;;;;19.87;11.27;;;;;;;;;;5119937;28;20449;-70
2022/01/28 07:47:45;;;;;;;20.73;10.67;;;;;;;;;;5120499;28;20458;-70
2022/01/28 07:50:15;;;;;;;20.97;10.07;;;;;;;;;;5117626;28;20446;-70
2022/01/28 07:52:43;;;;;;;20.87;10.40;;;;;;;;;;5100590;28;20473;-70
2022/01/28 07:55:12;;;;;;;17.90;10.20;;;;;;;;;;5103262;28;20487;-70
2022/01/28 07:57:40;;;;;;;17.60;9.87;;;;;;;;;;5103264;28;20468;-70
2022/01/28 08:00:09;;;;;;;22.83;10.77;;;;;;;;;;5099894;28;20443;-71
2022/01/28 08:02:37;;;;;;;19.47;10.97;;;;;;;;;;5099682;28;20452;-71
2022/01/28 08:05:06;;;;;;;20.40;12.10;;;;;;;;;;5099932;28;20475;-71
2022/01/28 08:07:35;;;;;;;20.50;10.53;;;;;;;;;;5113538;28;20469;-71
2022/01/28 08:10:03;;;;;;;21.83;10.90;;;;;;;;;;5120117;28;20937;-70
2022/01/28 08:12:31;;;;;;;24.03;11.10;;;;;;;;;;5105717;27;20450;-70
2022/01/28 08:14:59;;;;;;;20.97;10.87;;;;;;;;;;5099607;28;20570;-71
2022/01/28 08:17:32;;;;;;;16.33;10.60;;;;;;;;;;5099041;28;20467;-71
2022/01/28 08:20:00;;;;;;;19.60;10.50;;;;;;;;;;5098739;28;20456;-70
2022/01/28 08:22:28;;;;;;;20.03;10.10;;;;;;;;;;5099401;28;20524;-70
2022/01/28 08:24:57;;;;;;;21.90;10.63;;;;;;;;;;5113675;28;20811;-70
2022/01/28 08:27:25;;;;;;;20.07;11.30;;;;;;;;;;5116008;28;20473;-70
2022/01/28 08:29:53;;;;;;;22.70;10.87;;;;;;;;;;5119735;28;20478;-70
2022/01/28 08:32:21;;;;;;;22.47;9.60;;;;;;;;;;5118996;28;20838;-71
2022/01/28 08:34:49;;;;;;;18.17;10.57;;;;;;;;;;5119391;28;20447;-70
2022/01/28 08:37:17;;;;;;;18.90;9.80;;;;;;;;;;5103570;27;20480;-70
2022/01/28 08:39:45;;;;;;;15.83;10.03;;;;;;;;;;5105632;28;20448;-70
2022/01/28 08:42:16;;;;;;;13.20;7.70;;;;;;;;;;5098838;28;20537;-70
2022/01/28 08:44:44;;;;;;;14.80;9.37;;;;;;;;;;5113698;28;20508;-70
2022/01/28 08:47:12;;;;;;;13.77;8.13;;;;;;;;;;5119518;28;20455;-70
2022/01/28 08:49:41;;;;;;;19.90;10.17;;;;;;;;;;5118755;28;20514;-69
2022/01/28 08:52:09;;;;;;;15.33;7.77;;;;;;;;;;5119287;28;20443;-70
2022/01/28 08:54:37;;;;;;;12.67;7.30;;;;;;;;;;5103437;28;20448;-69
2022/01/28 08:57:05;;;;;;;14.67;6.47;;;;;;;;;;5108824;28;20489;-70
2022/01/28 08:59:39;;;;;;;12.50;7.63;;;;;;;;;;5098505;28;20934;-70
2022/01/28 09:02:08;;;;;;;13.87;7.77;;;;;;;;;;5098979;28;20483;-71
2022/01/28 09:04:36;;;;;;;15.67;8.13;;;;;;;;;;5112667;28;20453;-70
2022/01/28 09:07:04;;;;;;;16.63;8.10;;;;;;;;;;5118689;28;20485;-69
2022/01/28 09:09:32;;;;;;;13.37;7.07;;;;;;;;;;5104114;28;20449;-70
2022/01/28 09:12:18;;;;;;;14.50;7.63;;;;;;;;;;5099046;28;20447;-70
2022/01/28 09:14:47;;;;;;;12.00;7.17;;;;;;;;;;5098716;28;20526;-70
2022/01/28 09:17:15;;;;;;;14.43;7.30;;;;;;;;;;5098348;28;21043;-70
2022/01/28 09:19:44;;;;;;;15.50;7.60;;;;;;;;;;5100284;28;20485;-69
2022/01/28 09:22:12;;;;;;;13.73;7.67;;;;;;;;;;5098114;28;20447;-70
2022/01/28 09:24:40;;;;;;;12.13;7.20;;;;;;;;;;5098166;28;20447;-69
2022/01/28 09:27:08;;;;;;;21.80;8.80;;;;;;;;;;5098430;28;20499;-70
2022/01/28 09:29:36;;;;;;;16.17;7.73;;;;;;;;;;5097975;28;20443;-70
2022/01/28 09:32:07;;;;;;;12.83;7.00;;;;;;;;;;5097413;28;20456;-70
2022/01/28 09:34:36;;;;;;;13.27;6.30;;;;;;;;;;5097897;28;20443;-69
2022/01/28 09:37:04;;;;;;;11.87;6.70;;;;;;;;;;5097628;28;21002;-69
2022/01/28 09:39:33;;;;;;;14.17;7.40;;;;;;;;;;5104225;28;20443;-70
2022/01/28 09:42:03;;;;;;;12.93;7.07;;;;;;;;;;5098032;28;20451;-70
2022/01/28 09:44:32;;;;;;;11.87;6.67;;;;;;;;;;5097509;28;20458;-70
2022/01/28 09:47:00;;;;;;;10.03;6.53;;;;;;;;;;5097858;28;20581;-70
2022/01/28 09:49:29;;;;;;;11.77;6.97;;;;;;;;;;5097333;28;20447;-70
2022/01/28 09:51:57;;;;;;;12.67;6.77;;;;;;;;;;5098130;28;20435;-69
2022/01/28 09:54:25;;;;;;;11.53;6.30;;;;;;;;;;5098006;28;20452;-70
2022/01/28 09:56:53;;;;;;;11.57;6.27;;;;;;;;;;5115141;28;20478;-70
2022/01/28 09:59:21;;;;;;;11.90;6.87;;;;;;;;;;5098424;28;20444;-70
2022/01/28 10:01:50;;;;;;;14.27;7.07;;;;;;;;;;5097784;28;20939;-69
2022/01/28 10:04:18;;;;;;;13.33;7.07;;;;;;;;;;5096952;28;20868;-69
2022/01/28 10:06:48;;;;;;;13.33;7.27;;;;;;;;;;5097723;28;20551;-69
2022/01/28 10:09:18;;;;;;;12.00;7.10;;;;;;;;;;5097642;28;21007;-69
2022/01/28 10:11:49;;;;;;;12.10;6.43;;;;;;;;;;5097539;28;20447;-70
2022/01/28 10:14:20;;;;;;;13.93;7.83;;;;;;;;;;5114955;28;20446;-70
2022/01/28 10:16:55;;;;;;;12.47;6.73;;;;;;;;;;5117887;28;21052;-70
2022/01/28 10:19:24;;;;;;;10.83;7.33;;;;;;;;;;5105347;28;20454;-70
2022/01/28 10:21:54;;;;;;;12.47;7.60;;;;;;;;;;5097598;28;20449;-69
2022/01/28 10:24:23;;;;;;;11.93;7.87;;;;;;;;;;5097471;28;20935;-69
2022/01/28 10:26:52;;;;;;;10.53;6.53;;;;;;;;;;5097752;28;20963;-70
2022/01/28 10:29:21;;;;;;;11.17;6.53;;;;;;;;;;5097583;28;20947;-70
2022/01/28 10:31:50;;;;;;;9.33;6.33;;;;;;;;;;5097746;28;20451;-70
2022/01/28 10:34:22;;;;;;;15.13;7.53;;;;;;;;;;5096863;28;20450;-69
2022/01/28 10:36:51;;;;;;;11.50;7.03;;;;;;;;;;5097226;28;20488;-70
2022/01/28 10:39:22;;;;;;;10.10;6.70;;;;;;;;;;5104086;28;20451;-69
2022/01/28 10:41:54;;;;;;;10.57;6.80;;;;;;;;;;5097470;28;20454;-69
2022/01/28 10:44:22;;;;;;;13.17;7.67;;;;;;;;;;5099508;28;20806;-70
2022/01/28 10:46:54;;;;;;;9.87;6.47;;;;;;;;;;5101535;28;20459;-69
2022/01/28 10:49:27;;;;;;;11.07;6.73;;;;;;;;;;5100919;28;20808;-69
2022/01/28 10:51:55;;;;;;;8.00;5.93;;;;;;;;;;5101501;28;20455;-70
2022/01/28 10:54:25;;;;;;;11.43;6.77;;;;;;;;;;5101088;28;20443;-70
2022/01/28 10:56:54;;;;;;;10.47;6.27;;;;;;;;;;5118127;28;20995;-70
2022/01/28 10:59:23;;;;;;;9.77;6.63;;;;;;;;;;5102009;27;20977;-69
2022/01/28 11:01:52;;;;;;;11.07;6.17;;;;;;;;;;5100804;28;20443;-70
2022/01/28 11:04:20;;;;;;;11.47;6.30;;;;;;;;;;5118525;28;20921;-70
2022/01/28 11:06:49;;;;;;;10.23;6.23;;;;;;;;;;5120970;28;20545;-70
2022/01/28 11:09:19;;;;;;;9.00;6.07;;;;;;;;;;5103418;28;20459;-70
2022/01/28 11:11:49;;;;;;;8.73;6.30;;;;;;;;;;5117428;28;20485;-70
2022/01/28 11:14:18;;;;;;;10.17;6.57;;;;;;;;;;5121277;28;20439;-70
2022/01/28 11:16:46;;;;;;;8.67;5.97;;;;;;;;;;5120746;28;20481;-70
2022/01/28 11:19:16;;;;;;;8.07;5.23;;;;;;;;;;5110725;28;20451;-70
2022/01/28 11:21:52;;;;;;;9.97;5.33;;;;;;;;;;5100940;28;20539;-70
2022/01/28 11:24:29;;;;;;;7.23;4.93;;;;;;;;;;5100945;28;20443;-70
2022/01/28 11:27:04;;;;;;;9.63;5.70;;;;;;;;;;5101054;28;20471;-70
2022/01/28 11:29:32;;;;;;;5.10;4.17;;;;;;;;;;5100438;28;20486;-70
2022/01/28 11:32:13;;;;;;;6.67;4.47;;;;;;;;;;5100361;28;20470;-70
2022/01/28 11:34:58;;;;;;;6.10;4.57;;;;;;;;;;5099605;28;20786;-70
2022/01/28 11:37:27;;;;;;;6.57;4.23;;;;;;;;;;5100011;28;20828;-69
2022/01/28 11:39:55;;;;;;;7.97;4.70;;;;;;;;;;5099999;28;20441;-69
2022/01/28 11:42:29;;;;;;;6.53;4.00;;;;;;;;;;5100527;28;20459;-70
2022/01/28 11:44:57;;;;;;;8.10;4.57;;;;;;;;;;5100453;28;20450;-69
2022/01/28 11:47:26;;;;;;;6.73;4.10;;;;;;;;;;5100153;28;20464;-69
2022/01/28 11:49:58;;;;;;;5.50;4.60;;;;;;;;;;5099847;28;20446;-69
2022/01/28 11:52:29;;;;;;;6.73;5.07;;;;;;;;;;5099935;28;20452;-69
2022/01/28 11:54:57;;;;;;;8.30;4.93;;;;;;;;;;5100382;28;20440;-70
2022/01/28 11:57:29;;;;;;;5.17;3.93;;;;;;;;;;5110846;28;20970;-70
2022/01/28 12:00:21;;;;;;;9.07;4.40;;;;;;;;;;5100555;28;20440;-70
2022/01/28 12:02:49;;;;;;;7.20;4.97;;;;;;;;;;5084890;28;20453;-70
2022/01/28 12:05:47;;;;;;;7.33;4.30;;;;;;;;;;5099165;28;20505;-70
2022/01/28 12:08:16;;;;;;;6.70;4.57;;;;;;;;;;5099892;28;20444;-70
2022/01/28 12:10:50;;;;;;;6.33;4.30;;;;;;;;;;5099320;28;20808;-70
2022/01/28 12:13:21;;;;;;;6.70;4.83;;;;;;;;;;5099287;28;20457;-70
2022/01/28 12:16:04;;;;;;;5.10;4.27;;;;;;;;;;5099630;28;20444;-69
2022/01/28 12:18:49;;;;;;;7.03;4.50;;;;;;;;;;5098883;28;21108;-70
2022/01/28 12:21:17;;;;;;;5.90;4.27;;;;;;;;;;5099600;28;20814;-70
2022/01/28 12:23:46;;;;;;;8.60;4.40;;;;;;;;;;5099530;28;20817;-70
2022/01/28 12:26:17;;;;;;;5.83;4.40;;;;;;;;;;5099155;28;20830;-69
2022/01/28 12:28:48;;;;;;;8.20;5.80;;;;;;;;;;5099257;28;20443;-70
2022/01/28 12:31:20;;;;;;;9.27;5.20;;;;;;;;;;5099553;28;20950;-70
2022/01/28 12:33:49;;;;;;;9.23;5.43;;;;;;;;;;5098741;28;20479;-70
2022/01/28 12:36:18;;;;;;;9.60;6.83;;;;;;;;;;5112365;28;20482;-70
2022/01/28 12:38:59;;;;;;;6.40;4.87;;;;;;;;;;5098970;28;20482;-69
2022/01/28 12:41:29;;;;;;;7.17;5.17;;;;;;;;;;5098636;28;20452;-70
2022/01/28 12:43:58;;;;;;;10.27;6.03;;;;;;;;;;5099133;28;20807;-70
2022/01/28 12:46:28;;;;;;;8.57;5.13;;;;;;;;;;5098908;28;20550;-70
2022/01/28 12:48:58;;;;;;;8.07;5.90;;;;;;;;;;5098483;28;20454;-69
2022/01/28 12:51:26;;;;;;;7.07;5.80;;;;;;;;;;5098673;28;20447;-69
2022/01/28 12:53:55;;;;;;;6.13;5.30;;;;;;;;;;5098964;28;20436;-69
2022/01/28 12:56:30;;;;;;;7.20;5.57;;;;;;;;;;5111380;28;20466;-69
2022/01/28 12:59:00;;;;;;;10.40;6.57;;;;;;;;;;5098994;28;20487;-69
2022/01/28 13:01:28;;;;;;;7.73;4.87;;;;;;;;;;5098780;28;20454;-70
2022/01/28 13:04:07;;;;;;;6.17;4.63;;;;;;;;;;5098564;28;20475;-70
2022/01/28 13:08:24;;;;;;;7.20;5.73;;;;;;;;;;5098360;28;20517;-69
2022/01/28 13:09:44;;;;;;;8.33;5.53;;;;;;;;;;5098926;28;20478;-69
2022/01/28 13:12:20;;;;;;;8.43;5.37;;;;;;;;;;5098838;28;20522;-69
2022/01/28 13:14:50;;;;;;;6.67;5.60;;;;;;;;;;5098442;28;20447;-69
2022/01/28 13:17:21;;;;;;;8.23;5.63;;;;;;;;;;5098215;28;20466;-70
2022/01/28 13:19:56;;;;;;;7.90;5.63;;;;;;;;;;5097481;28;20457;-69
2022/01/28 13:22:25;;;;;;;10.73;5.33;;;;;;;;;;5098317;28;20805;-69
2022/01/28 13:24:54;;;;;;;9.33;6.10;;;;;;;;;;5098182;28;20964;-69
2022/01/28 13:27:22;;;;;;;10.57;5.13;;;;;;;;;;5098181;28;21004;-69
2022/01/28 13:29:53;;;;;;;8.83;5.37;;;;;;;;;;5097996;28;20435;-69
2022/01/28 13:32:25;;;;;;;7.40;5.33;;;;;;;;;;5098078;28;20931;-69
2022/01/28 13:34:54;;;;;;;6.07;5.30;;;;;;;;;;5097486;28;20471;-69
2022/01/28 13:37:33;;;;;;;8.13;4.93;;;;;;;;;;5097823;28;20887;-69
2022/01/28 13:40:01;;;;;;;10.03;5.97;;;;;;;;;;5097588;28;20993;-70
2022/01/28 13:42:29;;;;;;;9.10;5.57;;;;;;;;;;5098001;28;20454;-69
2022/01/28 13:45:03;;;;;;;7.33;5.67;;;;;;;;;;5097442;28;21030;-69
2022/01/28 13:47:49;;;;;;;6.33;5.37;;;;;;;;;;5098034;28;20468;-69
2022/01/28 13:50:30;;;;;;;9.20;5.43;;;;;;;;;;5097464;28;20443;-69
2022/01/28 13:53:20;;;;;;;9.63;6.53;;;;;;;;;;5097667;28;20448;-69
2022/01/28 13:55:48;;;;;;;7.13;5.63;;;;;;;;;;5106127;28;20455;-69
2022/01/28 13:58:17;;;;;;;8.87;5.97;;;;;;;;;;5101294;28;20536;-69
2022/01/28 14:00:47;;;;;;;10.83;6.33;;;;;;;;;;5097764;28;20454;-69
2022/01/28 14:03:16;;;;;;;9.33;6.03;;;;;;;;;;5097359;28;20527;-70
2022/01/28 14:05:51;;;;;;;8.67;6.23;;;;;;;;;;5097328;28;20448;-70
2022/01/28 14:08:39;;;;;;;7.57;5.50;;;;;;;;;;5097612;28;20436;-69
2022/01/28 14:11:21;;;;;;;7.93;5.60;;;;;;;;;;5105234;28;20449;-69
2022/01/28 14:14:09;;;;;;;10.57;6.23;;;;;;;;;;5117743;28;20984;-69
2022/01/28 14:16:39;;;;;;;7.63;5.43;;;;;;;;;;5106126;28;20467;-69
2022/01/28 14:19:07;;;;;;;10.30;6.23;;;;;;;;;;5099552;28;20558;-69
2022/01/28 14:21:35;;;;;;;8.33;6.60;;;;;;;;;;5101796;28;20482;-69
2022/01/28 14:24:03;;;;;;;11.40;5.80;;;;;;;;;;5101814;28;20816;-70
2022/01/28 14:26:31;;;;;;;8.90;5.57;;;;;;;;;;5102224;28;20463;-69
2022/01/28 14:31:55;;;;;;;8.00;5.67;;;;;;;;;;5088543;28;20443;-69
2022/01/28 14:34:23;;;;;;;9.93;6.30;;;;;;;;;;5116627;28;20445;-69
2022/01/28 14:36:51;;;;;;;11.50;6.10;;;;;;;;;;5101535;28;20481;-69
2022/01/28 14:39:19;;;;;;;8.90;5.97;;;;;;;;;;5110948;28;20477;-69
2022/01/28 14:41:49;;;;;;;10.20;5.20;;;;;;;;;;5101519;28;20467;-69
2022/01/28 14:44:17;;;;;;;10.40;6.50;;;;;;;;;;5101325;28;20443;-69
2022/01/28 14:46:45;;;;;;;10.80;7.13;;;;;;;;;;5101142;28;20469;-69
2022/01/28 14:49:15;;;;;;;14.00;5.83;;;;;;;;;;5100627;28;20962;-70
2022/01/28 14:51:50;;;;;;;8.40;5.83;;;;;;;;;;5101374;28;20439;-69
2022/01/28 14:54:18;;;;;;;13.00;6.63;;;;;;;;;;5101338;28;20457;-69
2022/01/28 14:56:46;;;;;;;11.37;6.67;;;;;;;;;;5113405;28;20468;-69
2022/01/28 14:59:14;;;;;;;12.30;6.83;;;;;;;;;;5100693;28;20479;-69
2022/01/28 15:01:42;;;;;;;7.70;5.83;;;;;;;;;;5101078;28;20482;-69
2022/01/28 15:04:10;;;;;;;12.07;6.97;;;;;;;;;;5101063;28;20454;-69
2022/01/28 15:06:40;;;;;;;11.33;6.53;;;;;;;;;;5121159;28;20557;-69
2022/01/28 15:09:10;;;;;;;10.37;6.63;;;;;;;;;;5121229;28;20452;-69
2022/01/28 15:11:44;;;;;;;11.13;6.87;;;;;;;;;;5121683;28;20476;-69
2022/01/28 15:14:13;;;;;;;11.47;7.00;;;;;;;;;;5121099;28;20482;-69
2022/01/28 15:16:41;;;;;;;11.70;6.87;;;;;;;;;;5121258;28;20466;-69
2022/01/28 15:19:09;;;;;;;10.27;7.37;;;;;;;;;;5111731;28;20483;-69
2022/01/28 15:21:38;;;;;;;12.73;6.37;;;;;;;;;;5120709;28;20504;-69
2022/01/28 15:24:07;;;;;;;13.73;7.30;;;;;;;;;;5121170;28;20443;-69
2022/01/28 15:26:35;;;;;;;9.10;7.07;;;;;;;;;;5101492;28;20478;-69
2022/01/28 15:29:06;;;;;;;11.50;6.57;;;;;;;;;;5100766;28;20776;-69
2022/01/28 15:37:03;;;;;;;12.10;7.70;;;;;;;;;;5097791;28;20558;-70
2022/01/28 15:39:35;;;;;;;9.40;6.63;;;;;;;;;;5112314;28;20479;-69
2022/01/28 15:42:03;;;;;;;9.17;6.77;;;;;;;;;;5121004;28;20531;-70
2022/01/28 15:44:31;;;;;;;8.97;6.87;;;;;;;;;;5118123;28;20442;-69
2022/01/28 15:46:59;;;;;;;9.93;6.50;;;;;;;;;;5100429;28;20547;-69